createdAt,value
2018-10-21T00:01:07.963Z,102188.00
2018-10-21T00:03:36.887Z,102186.00
2018-10-21T00:06:05.823Z,102182.00
2018-10-21T00:08:34.739Z,102189.00
2018-10-21T00:11:03.688Z,102187.00
2018-10-21T00:13:33.110Z,102179.00
2018-10-21T00:16:02.042Z,102189.00
2018-10-21T00:18:30.938Z,102191.00
2018-10-21T00:20:59.949Z,102180.00
2018-10-21T00:23:28.797Z,102180.00
2018-10-21T00:25:57.687Z,102192.00
2018-10-21T00:28:26.593Z,102188.00
2018-10-21T00:30:55.530Z,102186.00
2018-10-21T00:33:24.477Z,102181.00
2018-10-21T00:35:53.338Z,102176.00
2018-10-21T00:38:22.244Z,102191.00
2018-10-21T00:40:51.243Z,102184.00
2018-10-21T00:43:20.191Z,102183.00
2018-10-21T00:45:49.098Z,102191.00
2018-10-21T00:48:18.053Z,102195.00
2018-10-21T00:50:47.023Z,102189.00
2018-10-21T00:53:15.965Z,102183.00
2018-10-21T00:55:44.947Z,102189.00
2018-10-21T00:58:13.941Z,102190.00
2018-10-21T01:00:43.811Z,102188.00
2018-10-21T01:03:12.722Z,102191.00
2018-10-21T01:05:41.648Z,102192.00
2018-10-21T01:08:10.554Z,102191.00
2018-10-21T01:10:39.668Z,102196.00
2018-10-21T01:13:08.588Z,102191.00
2018-10-21T01:15:37.523Z,102187.00
2018-10-21T01:18:06.886Z,102186.00
2018-10-21T01:20:35.891Z,102191.00
2018-10-21T01:23:04.890Z,102191.00
2018-10-21T01:25:33.866Z,102188.00
2018-10-21T01:28:02.832Z,102188.00
2018-10-21T01:30:31.689Z,102188.00
2018-10-21T01:33:00.646Z,102192.00
2018-10-21T01:35:29.683Z,102183.00
2018-10-21T01:37:58.704Z,102184.00
2018-10-21T01:40:31.918Z,102186.00
2018-10-21T01:43:01.131Z,102186.00
2018-10-21T01:45:30.039Z,102185.00
2018-10-21T01:48:00.056Z,102187.00
2018-10-21T01:50:28.992Z,102180.00
2018-10-21T01:52:58.926Z,102172.00
2018-10-21T01:55:27.964Z,102173.00
2018-10-21T01:57:58.055Z,102172.00
2018-10-21T02:00:27.646Z,102169.00
2018-10-21T02:02:57.275Z,102170.00
2018-10-21T02:05:26.362Z,102175.00
2018-10-21T02:07:55.667Z,102174.00
2018-10-21T02:10:24.596Z,102174.00
2018-10-21T02:12:53.534Z,102168.00
2018-10-21T02:15:22.567Z,102166.00
2018-10-21T02:17:51.463Z,102168.00
2018-10-21T02:20:21.059Z,102166.00
2018-10-21T02:22:50.322Z,102174.00
2018-10-21T02:25:19.302Z,102170.00
2018-10-21T02:27:49.034Z,102164.00
2018-10-21T02:30:19.349Z,102177.00
2018-10-21T02:32:49.583Z,102180.00
2018-10-21T02:35:18.980Z,102177.00
2018-10-21T02:37:48.524Z,102173.00
2018-10-21T02:41:40.933Z,102180.00
2018-10-21T02:44:12.262Z,102190.00
2018-10-21T02:46:41.680Z,102175.00
2018-10-21T02:49:12.415Z,102177.00
2018-10-21T02:51:41.342Z,102186.00
2018-10-21T02:54:10.698Z,102186.00
2018-10-21T02:56:39.642Z,102179.00
2018-10-21T02:59:08.495Z,102188.00
2018-10-21T03:01:37.419Z,102189.00
2018-10-21T03:04:06.319Z,102201.00
2018-10-21T03:06:35.228Z,102194.00
2018-10-21T03:09:05.633Z,102199.00
2018-10-21T03:11:34.590Z,102197.00
2018-10-21T03:14:04.027Z,102191.00
2018-10-21T03:16:32.914Z,102194.00
2018-10-21T03:19:01.799Z,102194.00
2018-10-21T03:21:30.837Z,102195.00
2018-10-21T03:23:59.683Z,102191.00
2018-10-21T03:26:28.551Z,102194.00
2018-10-21T03:28:58.466Z,102188.00
2018-10-21T03:31:27.399Z,102196.00
2018-10-21T03:33:56.454Z,102200.00
2018-10-21T03:36:25.222Z,102207.00
2018-10-21T03:45:48.668Z,102208.00
2018-10-21T03:48:17.518Z,102209.00
2018-10-21T03:50:46.419Z,102213.00
2018-10-21T03:53:15.298Z,102218.00
2018-10-21T03:55:44.598Z,102219.00
2018-10-21T03:58:13.644Z,102217.00
2018-10-21T04:00:42.582Z,102218.00
2018-10-21T04:03:11.490Z,102218.00
2018-10-21T04:05:40.379Z,102216.00
2018-10-21T04:08:09.294Z,102217.00
2018-10-21T04:10:38.238Z,102226.00
2018-10-21T04:13:07.200Z,102224.00
2018-10-21T04:15:36.151Z,102228.00
2018-10-21T04:18:05.104Z,102230.00
2018-10-21T04:20:34.030Z,102229.00
2018-10-21T04:23:03.670Z,102222.00
2018-10-21T04:25:33.821Z,102227.00
2018-10-21T04:28:03.583Z,102228.00
2018-10-21T04:30:33.533Z,102217.00
2018-10-21T04:33:23.764Z,102230.00
2018-10-21T04:35:52.655Z,102227.00
2018-10-21T04:39:45.427Z,102229.00
2018-10-21T04:42:14.298Z,102227.00
2018-10-21T04:44:43.202Z,102228.00
2018-10-21T04:47:12.094Z,102228.00
2018-10-21T04:49:40.971Z,102215.00
2018-10-21T04:52:09.871Z,102219.00
2018-10-21T04:54:38.798Z,102224.00
2018-10-21T04:57:08.403Z,102215.00
2018-10-21T04:59:38.531Z,102203.00
2018-10-21T05:02:07.372Z,102198.00
2018-10-21T05:04:36.245Z,102209.00
2018-10-21T05:07:05.154Z,102205.00
2018-10-21T05:09:34.087Z,102204.00
2018-10-21T05:12:03.010Z,102209.00
2018-10-21T05:14:32.854Z,102218.00
2018-10-21T05:17:01.758Z,102215.00
2018-10-21T05:19:30.847Z,102207.00
2018-10-21T05:21:59.707Z,102209.00
2018-10-21T05:24:28.572Z,102211.00
2018-10-21T05:26:57.558Z,102218.00
2018-10-21T05:29:26.469Z,102230.00
2018-10-21T05:31:55.387Z,102221.00
2018-10-21T05:34:24.226Z,102211.00
2018-10-21T05:36:53.146Z,102219.00
2018-10-21T05:39:22.092Z,102231.00
2018-10-21T05:41:50.922Z,102232.00
2018-10-21T05:44:19.746Z,102228.00
2018-10-21T05:46:50.825Z,102231.00
2018-10-21T05:49:19.578Z,102231.00
2018-10-21T05:51:49.864Z,102240.00
2018-10-21T05:54:19.535Z,102241.00
2018-10-21T05:56:49.810Z,102229.00
2018-10-21T05:59:18.954Z,102253.00
2018-10-21T06:01:49.104Z,102241.00
2018-10-21T06:04:18.638Z,102242.00
2018-10-21T06:06:47.567Z,102251.00
2018-10-21T06:09:16.422Z,102241.00
2018-10-21T06:11:45.247Z,102249.00
2018-10-21T06:14:14.119Z,102253.00
2018-10-21T06:16:48.420Z,102267.00
2018-10-21T06:19:20.732Z,102251.00
2018-10-21T06:21:49.616Z,102252.00
2018-10-21T06:24:18.459Z,102255.00
2018-10-21T06:26:47.429Z,102258.00
2018-10-21T06:31:25.059Z,102260.00
2018-10-21T06:33:53.945Z,102261.00
2018-10-21T06:36:23.215Z,102271.00
2018-10-21T06:38:52.047Z,102280.00
2018-10-21T06:41:21.738Z,102278.00
2018-10-21T06:43:50.562Z,102282.00
2018-10-21T06:46:19.479Z,102285.00
2018-10-21T06:48:48.404Z,102289.00
2018-10-21T06:51:17.394Z,102290.00
2018-10-21T06:53:46.242Z,102285.00
2018-10-21T06:56:15.236Z,102299.00
2018-10-21T06:58:44.079Z,102292.00
2018-10-21T07:01:12.930Z,102296.00
2018-10-21T07:03:41.807Z,102293.00
2018-10-21T07:06:16.082Z,102293.00
2018-10-21T07:08:45.339Z,102297.00
2018-10-21T07:11:14.382Z,102304.00
2018-10-21T07:13:43.387Z,102295.00
2018-10-21T07:16:12.540Z,102298.00
2018-10-21T07:18:41.988Z,102310.00
2018-10-21T07:21:10.992Z,102314.00
2018-10-21T07:23:40.258Z,102318.00
2018-10-21T07:26:09.195Z,102315.00
2018-10-21T07:28:38.231Z,102321.00
2018-10-21T07:31:07.109Z,102324.00
2018-10-21T07:33:36.138Z,102328.00
2018-10-21T07:36:05.499Z,102334.00
2018-10-21T07:38:34.375Z,102331.00
2018-10-21T07:41:03.236Z,102342.00
2018-10-21T07:43:32.194Z,102332.00
2018-10-21T07:46:01.190Z,102330.00
2018-10-21T07:48:30.095Z,102332.00
2018-10-21T07:50:59.098Z,102327.00
2018-10-21T07:53:28.054Z,102334.00
2018-10-21T07:55:56.907Z,102336.00
2018-10-21T07:58:25.774Z,102342.00
2018-10-21T08:00:54.636Z,102332.00
2018-10-21T08:03:23.674Z,102331.00
2018-10-21T08:06:31.244Z,102332.00
2018-10-21T08:09:00.162Z,102329.00
2018-10-21T08:11:29.054Z,102332.00
2018-10-21T08:13:58.006Z,102331.00
2018-10-21T08:16:26.938Z,102332.00
2018-10-21T08:18:55.827Z,102334.00
2018-10-21T08:21:25.088Z,102341.00
2018-10-21T08:23:54.035Z,102339.00
2018-10-21T08:26:22.962Z,102338.00
2018-10-21T08:28:51.955Z,102334.00
2018-10-21T08:31:20.875Z,102339.00
2018-10-21T08:33:49.806Z,102340.00
2018-10-21T08:36:18.706Z,102336.00
2018-10-21T08:38:47.670Z,102341.00
2018-10-21T08:41:16.579Z,102337.00
2018-10-21T08:43:45.430Z,102343.00
2018-10-21T08:46:14.439Z,102337.00
2018-10-21T08:48:43.403Z,102338.00
2018-10-21T08:51:12.454Z,102354.00
2018-10-21T08:53:41.299Z,102358.00
2018-10-21T08:56:10.175Z,102361.00
2018-10-21T08:58:39.212Z,102356.00
2018-10-21T09:01:08.182Z,102355.00
2018-10-21T09:03:37.351Z,102350.00
2018-10-21T09:06:06.259Z,102352.00
2018-10-21T09:08:35.103Z,102341.00
2018-10-21T09:11:04.153Z,102337.00
2018-10-21T09:13:32.958Z,102344.00
2018-10-21T09:16:01.829Z,102342.00
2018-10-21T09:18:30.848Z,102340.00
2018-10-21T09:20:59.706Z,102342.00
2018-10-21T09:23:28.619Z,102343.00
2018-10-21T09:25:57.462Z,102346.00
2018-10-21T09:28:26.404Z,102343.00
2018-10-21T09:30:55.291Z,102337.00
2018-10-21T09:33:24.278Z,102334.00
2018-10-21T09:35:53.194Z,102331.00
2018-10-21T09:38:22.130Z,102334.00
2018-10-21T09:40:51.010Z,102332.00
2018-10-21T09:43:19.942Z,102337.00
2018-10-21T09:45:48.814Z,102330.00
2018-10-21T09:48:17.728Z,102330.00
2018-10-21T09:50:46.646Z,102337.00
2018-10-21T09:53:15.581Z,102329.00
2018-10-21T09:55:44.458Z,102331.00
2018-10-21T09:58:13.449Z,102325.00
2018-10-21T10:00:47.718Z,102320.00
2018-10-21T10:03:16.647Z,102321.00
2018-10-21T10:05:45.559Z,102323.00
2018-10-21T10:08:14.510Z,102312.00
2018-10-21T10:10:43.474Z,102311.00
2018-10-21T10:13:12.401Z,102313.00
2018-10-21T10:15:41.281Z,102317.00
2018-10-21T10:18:10.206Z,102315.00
2018-10-21T10:20:39.066Z,102314.00
2018-10-21T10:23:08.024Z,102319.00
2018-10-21T10:25:36.965Z,102309.00
2018-10-21T10:28:06.936Z,102305.00
2018-10-21T10:30:35.917Z,102299.00
2018-10-21T10:33:04.955Z,102309.00
2018-10-21T10:35:33.917Z,102309.00
2018-10-21T10:38:02.870Z,102309.00
2018-10-21T10:40:31.737Z,102311.00
2018-10-21T10:43:00.632Z,102309.00
2018-10-21T10:45:29.538Z,102300.00
2018-10-21T10:47:58.423Z,102301.00
2018-10-21T10:50:27.314Z,102294.00
2018-10-21T10:52:56.281Z,102282.00
2018-10-21T10:55:29.335Z,102284.00
2018-10-21T10:57:58.278Z,102283.00
2018-10-21T11:00:27.166Z,102284.00
2018-10-21T11:02:56.122Z,102284.00
2018-10-21T11:05:25.027Z,102278.00
2018-10-21T11:07:53.922Z,102276.00
2018-10-21T11:10:22.870Z,102281.00
2018-10-21T11:12:51.807Z,102274.00
2018-10-21T11:15:20.630Z,102275.00
2018-10-21T11:17:49.524Z,102273.00
2018-10-21T11:20:18.423Z,102271.00
2018-10-21T11:22:47.293Z,102271.00
2018-10-21T11:25:16.230Z,102268.00
2018-10-21T11:27:45.179Z,102264.00
2018-10-21T11:30:14.064Z,102266.00
2018-10-21T11:32:42.968Z,102256.00
2018-10-21T11:35:11.823Z,102264.00
2018-10-21T11:37:40.759Z,102258.00
2018-10-21T11:40:09.639Z,102263.00
2018-10-21T11:42:38.519Z,102255.00
2018-10-21T11:45:07.661Z,102256.00
2018-10-21T11:47:36.610Z,102259.00
2018-10-21T11:50:06.291Z,102274.00
2018-10-21T11:52:35.277Z,102249.00
2018-10-21T11:55:04.169Z,102253.00
2018-10-21T11:57:32.953Z,102258.00
2018-10-21T12:00:01.880Z,102261.00
2018-10-21T12:02:30.752Z,102259.00
2018-10-21T12:04:59.652Z,102256.00
2018-10-21T12:07:28.558Z,102254.00
2018-10-21T12:09:57.557Z,102259.00
2018-10-21T12:12:26.376Z,102251.00
2018-10-21T12:14:55.279Z,102248.00
2018-10-21T12:17:25.543Z,102254.00
2018-10-21T12:19:54.438Z,102255.00
2018-10-21T12:22:23.448Z,102251.00
2018-10-21T12:24:52.343Z,102244.00
2018-10-21T12:27:21.378Z,102249.00
2018-10-21T12:29:50.347Z,102249.00
2018-10-21T12:32:19.271Z,102252.00
2018-10-21T12:34:48.150Z,102249.00
2018-10-21T12:37:17.786Z,102250.00
2018-10-21T12:39:46.646Z,102244.00
2018-10-21T12:42:15.587Z,102259.00
2018-10-21T12:44:44.559Z,102249.00
2018-10-21T12:47:13.515Z,102247.00
2018-10-21T12:49:42.332Z,102241.00
2018-10-21T12:52:11.348Z,102247.00
2018-10-21T12:54:40.359Z,102245.00
2018-10-21T12:57:09.293Z,102249.00
2018-10-21T12:59:38.210Z,102249.00
2018-10-21T13:02:07.121Z,102249.00
2018-10-21T13:04:36.050Z,102251.00
2018-10-21T13:07:05.305Z,102242.00
2018-10-21T13:09:34.190Z,102231.00
2018-10-21T13:12:03.134Z,102237.00
2018-10-21T13:14:32.046Z,102232.00
2018-10-21T13:17:00.981Z,102233.00
2018-10-21T13:26:24.420Z,102216.00
2018-10-21T13:28:53.342Z,102225.00
2018-10-21T13:31:22.217Z,102216.00
2018-10-21T13:33:51.110Z,102216.00
2018-10-21T13:36:20.009Z,102216.00
2018-10-21T13:38:48.877Z,102211.00
2018-10-21T13:41:17.683Z,102213.00
2018-10-21T13:43:47.338Z,102214.00
2018-10-21T13:46:16.319Z,102210.00
2018-10-21T13:48:45.158Z,102206.00
2018-10-21T13:51:15.070Z,102203.00
2018-10-21T13:53:43.930Z,102207.00
2018-10-21T13:56:12.841Z,102197.00
2018-10-21T13:58:41.726Z,102198.00
2018-10-21T14:01:10.792Z,102198.00
2018-10-21T14:03:39.511Z,102195.00
2018-10-21T14:06:08.395Z,102199.00
2018-10-21T14:08:37.374Z,102193.00
2018-10-21T14:11:06.288Z,102191.00
2018-10-21T14:13:35.178Z,102184.00
2018-10-21T14:16:04.116Z,102184.00
2018-10-21T14:18:32.916Z,102187.00
2018-10-21T14:21:02.332Z,102179.00
2018-10-21T14:23:31.539Z,102188.00
2018-10-21T14:26:00.458Z,102185.00
2018-10-21T14:28:29.406Z,102180.00
2018-10-21T14:32:01.617Z,102176.00
2018-10-21T14:34:30.509Z,102174.00
2018-10-21T14:36:59.556Z,102180.00
2018-10-21T14:39:28.676Z,102178.00
2018-10-21T14:41:57.660Z,102177.00
2018-10-21T14:44:26.452Z,102176.00
2018-10-21T14:46:55.349Z,102172.00
2018-10-21T14:49:24.270Z,102170.00
2018-10-21T14:51:53.253Z,102162.00
2018-10-21T14:54:22.139Z,102167.00
2018-10-21T14:56:51.081Z,102171.00
2018-10-21T14:59:19.919Z,102175.00
2018-10-21T15:01:48.790Z,102167.00
2018-10-21T15:04:17.789Z,102168.00
2018-10-21T15:06:46.728Z,102164.00
2018-10-21T15:09:15.690Z,102158.00
2018-10-21T15:11:44.547Z,102157.00
2018-10-21T15:14:13.519Z,102159.00
2018-10-21T15:16:42.339Z,102157.00
2018-10-21T15:19:11.227Z,102162.00
2018-10-21T15:21:40.156Z,102149.00
2018-10-21T15:24:08.986Z,102149.00
2018-10-21T15:26:38.050Z,102148.00
2018-10-21T15:29:07.283Z,102146.00
2018-10-21T15:31:36.194Z,102147.00
2018-10-21T15:34:05.153Z,102145.00
2018-10-21T15:36:33.943Z,102145.00
2018-10-21T15:39:02.850Z,102146.00
2018-10-21T15:41:31.744Z,102144.00
2018-10-21T15:44:00.656Z,102149.00
2018-10-21T15:46:29.458Z,102141.00
2018-10-21T15:48:58.517Z,102138.00
2018-10-21T15:51:27.394Z,102139.00
2018-10-21T15:53:56.295Z,102150.00
2018-10-21T15:56:25.187Z,102144.00
2018-10-21T15:58:54.013Z,102143.00
2018-10-21T16:01:22.863Z,102142.00
2018-10-21T16:03:51.755Z,102146.00
2018-10-21T16:06:20.656Z,102143.00
2018-10-21T16:08:49.510Z,102135.00
2018-10-21T16:11:18.432Z,102132.00
2018-10-21T16:13:47.361Z,102141.00
2018-10-21T16:16:18.142Z,102137.00
2018-10-21T16:18:49.766Z,102141.00
2018-10-21T16:21:18.682Z,102144.00
2018-10-21T16:23:47.583Z,102138.00
2018-10-21T16:26:16.492Z,102150.00
2018-10-21T16:28:45.360Z,102148.00
2018-10-21T16:31:14.315Z,102144.00
2018-10-21T16:33:43.220Z,102136.00
2018-10-21T16:36:12.130Z,102140.00
2018-10-21T16:38:41.034Z,102145.00
2018-10-21T16:41:09.870Z,102135.00
2018-10-21T16:43:38.815Z,102149.00
2018-10-21T16:46:07.719Z,102147.00
2018-10-21T16:48:36.571Z,102148.00
2018-10-21T16:51:06.283Z,102146.00
2018-10-21T16:53:35.235Z,102153.00
2018-10-21T16:56:04.157Z,102150.00
2018-10-21T16:58:33.078Z,102146.00
2018-10-21T17:01:02.023Z,102151.00
2018-10-21T17:03:31.909Z,102153.00
2018-10-21T17:06:01.423Z,102146.00
2018-10-21T17:08:30.362Z,102153.00
2018-10-21T17:10:59.369Z,102153.00
2018-10-21T17:13:28.279Z,102125.00
2018-10-21T17:15:57.139Z,102157.00
2018-10-21T17:18:26.178Z,102158.00
2018-10-21T17:20:55.154Z,102153.00
2018-10-21T17:23:24.114Z,102155.00
2018-10-21T17:25:53.058Z,102145.00
2018-10-21T17:28:22.059Z,102153.00
2018-10-21T17:30:50.997Z,102150.00
2018-10-21T17:33:19.930Z,102154.00
2018-10-21T17:35:48.848Z,102147.00
2018-10-21T17:38:17.922Z,102149.00
2018-10-21T17:40:46.814Z,102153.00
2018-10-21T17:43:15.815Z,102149.00
2018-10-21T17:45:44.662Z,102150.00
2018-10-21T17:48:13.560Z,102143.00
2018-10-21T17:50:42.383Z,102140.00
2018-10-21T17:53:12.360Z,102138.00
2018-10-21T17:55:41.225Z,102139.00
2018-10-21T17:58:10.221Z,102136.00
2018-10-21T18:00:39.886Z,102140.00
2018-10-21T18:03:10.902Z,102143.00
2018-10-21T18:05:39.886Z,102140.00
2018-10-21T18:08:08.869Z,102135.00
2018-10-21T18:10:37.952Z,102134.00
2018-10-21T18:13:06.830Z,102132.00
2018-10-21T18:15:35.914Z,102138.00
2018-10-21T18:18:05.030Z,102139.00
2018-10-21T18:20:34.027Z,102138.00
2018-10-21T18:23:02.949Z,102129.00
2018-10-21T18:25:31.964Z,102133.00
2018-10-21T18:28:00.976Z,102135.00
2018-10-21T18:30:29.942Z,102141.00
2018-10-21T18:32:58.950Z,102129.00
2018-10-21T18:35:27.779Z,102129.00
2018-10-21T18:37:56.786Z,102135.00
2018-10-21T18:40:25.926Z,102141.00
2018-10-21T18:42:54.768Z,102129.00
2018-10-21T18:45:23.640Z,102127.00
2018-10-21T18:47:52.542Z,102129.00
2018-10-21T18:50:21.533Z,102130.00
2018-10-21T18:52:50.602Z,102129.00
2018-10-21T18:55:19.794Z,102138.00
2018-10-21T18:57:48.690Z,102128.00
2018-10-21T19:00:18.659Z,102143.00
2018-10-21T19:02:47.626Z,102129.00
2018-10-21T19:05:16.675Z,102133.00
2018-10-21T19:07:45.614Z,102131.00
2018-10-21T19:10:15.717Z,102137.00
2018-10-21T19:12:44.630Z,102135.00
2018-10-21T19:15:14.070Z,102107.00
2018-10-21T19:17:43.033Z,102116.00
2018-10-21T19:20:13.698Z,102127.00
2018-10-21T19:22:42.895Z,102119.00
2018-10-21T19:25:18.467Z,102120.00
2018-10-21T19:27:47.520Z,102125.00
2018-10-21T19:30:16.526Z,102118.00
2018-10-21T19:32:45.612Z,102116.00
2018-10-21T19:35:15.516Z,102121.00
2018-10-21T19:37:44.611Z,102113.00
2018-10-21T19:40:14.820Z,102119.00
2018-10-21T19:42:44.648Z,102122.00
2018-10-21T19:45:14.248Z,102110.00
2018-10-21T19:47:43.281Z,102119.00
2018-10-21T19:50:13.424Z,102110.00
2018-10-21T19:52:43.067Z,102111.00
2018-10-21T19:55:12.372Z,102121.00
2018-10-21T19:57:41.194Z,102113.00
2018-10-21T20:00:13.731Z,102117.00
2018-10-21T20:02:42.851Z,102127.00
2018-10-21T20:05:11.741Z,102116.00
2018-10-21T20:07:40.791Z,102129.00
2018-10-21T20:10:11.738Z,102116.00
2018-10-21T20:12:40.594Z,102119.00
2018-10-21T20:15:10.591Z,102126.00
2018-10-21T20:17:39.879Z,102125.00
2018-10-21T20:20:09.691Z,102118.00
2018-10-21T20:22:38.591Z,102121.00
2018-10-21T20:25:08.445Z,102121.00
2018-10-21T20:27:37.263Z,102120.00
2018-10-21T20:30:08.102Z,102117.00
2018-10-21T20:32:37.114Z,102110.00
2018-10-21T20:35:07.696Z,102109.00
2018-10-21T20:37:36.638Z,102109.00
2018-10-21T20:40:06.642Z,102106.00
2018-10-21T20:42:35.519Z,102101.00
2018-10-21T20:45:04.615Z,102112.00
2018-10-21T20:47:33.527Z,102113.00
2018-10-21T20:50:02.501Z,102116.00
2018-10-21T20:52:31.452Z,102108.00
2018-10-21T20:55:00.396Z,102107.00
2018-10-21T20:57:29.298Z,102110.00
2018-10-21T20:59:58.243Z,102113.00
2018-10-21T21:02:27.150Z,102118.00
2018-10-21T21:04:56.072Z,102115.00
2018-10-21T21:07:24.958Z,102116.00
2018-10-21T21:09:53.853Z,102115.00
2018-10-21T21:12:22.738Z,102120.00
2018-10-21T21:14:51.550Z,102122.00
2018-10-21T21:17:20.499Z,102115.00
2018-10-21T21:19:49.374Z,102113.00
2018-10-21T21:22:18.400Z,102111.00
2018-10-21T21:24:47.255Z,102110.00
2018-10-21T21:27:16.225Z,102107.00
2018-10-21T21:29:45.127Z,102104.00
2018-10-21T21:32:14.074Z,102111.00
2018-10-21T21:34:42.925Z,102111.00
2018-10-21T21:37:11.811Z,102105.00
2018-10-21T21:39:40.738Z,102104.00
2018-10-21T21:42:09.613Z,102103.00
2018-10-21T21:44:38.482Z,102112.00
2018-10-21T21:47:07.401Z,102104.00
2018-10-21T21:49:36.278Z,102106.00
2018-10-21T21:52:05.212Z,102098.00
2018-10-21T21:54:34.148Z,102101.00
2018-10-21T21:57:03.059Z,102099.00
2018-10-21T21:59:32.028Z,102104.00
2018-10-21T22:02:00.951Z,102095.00
2018-10-21T22:04:29.891Z,102098.00
2018-10-21T22:06:58.786Z,102099.00
2018-10-21T22:09:27.679Z,102098.00
2018-10-21T22:11:56.605Z,102102.00
2018-10-21T22:14:25.460Z,102094.00
2018-10-21T22:16:54.362Z,102092.00
2018-10-21T22:19:23.239Z,102084.00
2018-10-21T22:21:52.126Z,102094.00
2018-10-21T22:24:21.014Z,102084.00
2018-10-21T22:26:49.963Z,102077.00
2018-10-21T22:29:19.825Z,102078.00
2018-10-21T22:31:48.755Z,102080.00
2018-10-21T22:34:17.731Z,102086.00
2018-10-21T22:36:46.622Z,102084.00
2018-10-21T22:39:16.001Z,102086.00
2018-10-21T22:41:45.076Z,102073.00
2018-10-21T22:44:14.642Z,102083.00
2018-10-21T22:46:43.527Z,102082.00
2018-10-21T22:49:12.415Z,102075.00
2018-10-21T22:51:41.339Z,102072.00
2018-10-21T22:54:10.383Z,102073.00
2018-10-21T22:56:39.140Z,102064.00
2018-10-21T22:59:08.078Z,102059.00
2018-10-21T23:01:36.945Z,102062.00
2018-10-21T23:04:06.046Z,102061.00
2018-10-21T23:06:34.955Z,102056.00
2018-10-21T23:09:05.170Z,102064.00
2018-10-21T23:11:34.078Z,102051.00
2018-10-21T23:14:02.985Z,102049.00
2018-10-21T23:16:32.719Z,102056.00
2018-10-21T23:19:19.103Z,102050.00
2018-10-21T23:21:48.031Z,102058.00
2018-10-21T23:24:16.982Z,102058.00
2018-10-21T23:26:45.794Z,102054.00
2018-10-21T23:29:14.759Z,102042.00
2018-10-21T23:31:43.694Z,102044.00
2018-10-21T23:34:12.701Z,102059.00
2018-10-21T23:36:41.558Z,102047.00
2018-10-21T23:39:10.498Z,102050.00
2018-10-21T23:41:39.361Z,102054.00
2018-10-21T23:44:08.269Z,102058.00
2018-10-21T23:46:37.143Z,102042.00
2018-10-21T23:49:07.071Z,102043.00
2018-10-21T23:51:36.020Z,102035.00
2018-10-21T23:54:05.093Z,102037.00
2018-10-21T23:56:34.062Z,102034.00
2018-10-21T23:59:03.006Z,102015.00
